createdAt,value
2023-02-26T00:05:51.844Z,2.56
2023-02-26T00:11:17.111Z,1.72
2023-02-26T00:16:42.137Z,2.86
2023-02-26T00:22:07.479Z,5.10
2023-02-26T00:27:31.972Z,6.06
2023-02-26T00:32:56.661Z,6.75
2023-02-26T00:38:20.673Z,7.10
2023-02-26T00:43:45.452Z,7.39
2023-02-26T00:49:28.557Z,7.56
2023-02-26T00:54:53.540Z,6.65
2023-02-26T01:00:18.621Z,4.27
2023-02-26T01:05:42.971Z,2.66
2023-02-26T01:11:07.292Z,1.74
2023-02-26T01:16:38.126Z,2.29
2023-02-26T01:22:34.429Z,4.58
2023-02-26T01:27:59.187Z,5.74
2023-02-26T01:33:39.886Z,6.37
2023-02-26T01:39:25.878Z,6.54
2023-02-26T01:45:21.713Z,6.47
2023-02-26T01:50:45.761Z,6.47
2023-02-26T01:56:20.249Z,6.79
2023-02-26T02:01:44.987Z,6.84
2023-02-26T02:07:10.004Z,4.90
2023-02-26T02:12:51.088Z,2.99
2023-02-26T02:18:23.273Z,1.78
2023-02-26T02:24:06.918Z,1.12
2023-02-26T02:29:52.175Z,3.09
2023-02-26T02:35:27.169Z,5.10
2023-02-26T02:40:59.109Z,6.01
2023-02-26T02:46:29.222Z,6.51
2023-02-26T02:52:03.730Z,6.78
2023-02-26T02:57:37.560Z,6.84
2023-02-26T03:03:13.977Z,6.93
2023-02-26T03:08:42.681Z,5.94
2023-02-26T03:14:10.514Z,3.60
2023-02-26T03:19:44.942Z,2.15
2023-02-26T03:25:22.713Z,1.27
2023-02-26T03:31:04.782Z,3.13
2023-02-26T03:36:54.726Z,5.04
2023-02-26T03:42:44.891Z,5.98
2023-02-26T03:48:14.422Z,6.30
2023-02-26T03:54:03.367Z,6.54
2023-02-26T03:59:30.332Z,5.84
2023-02-26T04:05:21.201Z,3.37
2023-02-26T04:10:53.431Z,1.84
2023-02-26T04:16:19.233Z,2.95
2023-02-26T04:21:44.233Z,4.96
2023-02-26T04:27:08.652Z,5.85
2023-02-26T04:32:33.590Z,6.29
2023-02-26T04:37:58.159Z,6.49
2023-02-26T04:43:22.586Z,6.77
2023-02-26T04:48:57.045Z,5.86
2023-02-26T04:54:22.575Z,3.42
2023-02-26T04:59:46.845Z,1.90
2023-02-26T05:05:10.769Z,1.02
2023-02-26T05:10:35.008Z,0.54
2023-02-26T05:15:58.900Z,1.41
2023-02-26T05:21:26.110Z,4.03
2023-02-26T05:26:51.067Z,5.32
2023-02-26T05:32:15.325Z,6.12
2023-02-26T05:37:40.918Z,6.48
2023-02-26T05:43:05.655Z,6.51
2023-02-26T05:48:30.114Z,6.24
2023-02-26T05:53:55.141Z,4.07
2023-02-26T05:59:19.933Z,2.30
2023-02-26T06:04:44.377Z,1.27
2023-02-26T06:10:09.038Z,1.90
2023-02-26T06:15:33.698Z,4.26
2023-02-26T06:20:57.894Z,5.29
2023-02-26T06:26:23.881Z,5.91
2023-02-26T06:31:48.953Z,6.13
2023-02-26T06:37:13.234Z,6.39
2023-02-26T06:42:37.914Z,6.43
2023-02-26T06:48:02.488Z,6.62
2023-02-26T06:53:26.887Z,5.35
2023-02-26T06:58:52.477Z,3.32
2023-02-26T07:04:19.762Z,1.95
2023-02-26T07:09:46.099Z,1.12
2023-02-26T07:15:11.352Z,0.66
2023-02-26T07:20:35.501Z,1.60
2023-02-26T07:25:59.719Z,4.16
2023-02-26T07:31:25.264Z,5.39
2023-02-26T07:36:50.821Z,5.95
2023-02-26T07:42:15.480Z,6.41
2023-02-26T07:47:39.941Z,6.76
2023-02-26T07:53:03.873Z,7.08
2023-02-26T07:58:28.765Z,6.16
2023-02-26T08:03:53.318Z,3.92
2023-02-26T08:09:18.820Z,2.68
2023-02-26T08:14:43.140Z,1.94
2023-02-26T08:20:08.958Z,2.60
2023-02-26T08:25:33.886Z,5.22
2023-02-26T08:30:58.484Z,6.54
2023-02-26T08:36:24.001Z,7.19
2023-02-26T08:41:48.672Z,7.24
2023-02-26T08:47:15.154Z,7.10
2023-02-26T08:52:41.255Z,5.05
2023-02-26T08:58:06.176Z,3.44
2023-02-26T09:03:34.218Z,2.62
2023-02-26T09:08:58.897Z,1.90
2023-02-26T09:14:23.944Z,2.68
2023-02-26T09:19:48.080Z,5.14
2023-02-26T09:25:12.795Z,6.39
2023-02-26T09:30:36.944Z,6.94
2023-02-26T09:36:01.120Z,7.14
2023-02-26T09:41:32.788Z,7.19
2023-02-26T09:47:19.088Z,6.32
2023-02-26T09:52:53.999Z,3.88
2023-02-26T09:58:38.140Z,3.34
2023-02-26T10:04:14.595Z,5.44
2023-02-26T10:10:11.296Z,6.12
2023-02-26T10:15:43.614Z,6.46
2023-02-26T10:21:15.681Z,6.85
2023-02-26T10:26:50.281Z,7.27
2023-02-26T10:32:18.037Z,5.97
2023-02-26T10:37:52.650Z,3.75
2023-02-26T10:43:43.256Z,3.69
2023-02-26T10:49:33.120Z,5.85
2023-02-26T10:55:07.611Z,6.98
2023-02-26T11:00:43.357Z,7.23
2023-02-26T11:06:08.763Z,5.48
2023-02-26T11:11:43.990Z,3.82
2023-02-26T11:17:17.171Z,3.17
2023-02-26T11:22:57.933Z,5.45
2023-02-26T11:28:32.625Z,6.76
2023-02-26T11:34:05.728Z,7.36
2023-02-26T11:39:34.957Z,7.83
2023-02-26T11:44:59.517Z,6.85
2023-02-26T11:50:26.542Z,4.68
2023-02-26T11:56:00.603Z,3.61
2023-02-26T12:01:30.090Z,3.31
2023-02-26T12:06:55.743Z,5.33
2023-02-26T12:12:28.466Z,7.24
2023-02-26T12:18:18.028Z,8.24
2023-02-26T12:24:10.878Z,7.01
2023-02-26T12:30:01.716Z,4.38
2023-02-26T12:35:35.477Z,3.07
2023-02-26T12:40:59.849Z,2.66
2023-02-26T12:46:41.362Z,2.58
2023-02-26T12:52:26.989Z,4.22
2023-02-26T12:58:05.514Z,6.74
2023-02-26T13:03:55.358Z,7.81
2023-02-26T13:09:34.950Z,8.31
2023-02-26T13:15:14.616Z,7.86
2023-02-26T13:20:45.923Z,5.72
2023-02-26T13:26:16.465Z,4.69
2023-02-26T13:31:49.936Z,4.18
2023-02-26T13:37:28.839Z,4.61
2023-02-26T13:43:31.557Z,7.13
2023-02-26T13:49:24.386Z,6.96
2023-02-26T13:54:49.455Z,5.20
2023-02-26T14:00:29.008Z,4.12
2023-02-26T14:06:07.767Z,3.58
2023-02-26T14:11:46.894Z,3.12
2023-02-26T14:17:11.713Z,2.64
2023-02-26T14:22:43.581Z,2.30
2023-02-26T14:28:26.655Z,2.18
2023-02-26T14:34:10.334Z,4.23
2023-02-26T14:39:46.894Z,6.02
2023-02-26T14:45:14.645Z,4.85
2023-02-26T14:50:45.146Z,3.35
2023-02-26T14:56:32.052Z,2.51
2023-02-26T15:02:27.280Z,3.53
2023-02-26T15:07:59.068Z,6.16
2023-02-26T15:14:01.244Z,6.18
2023-02-26T15:19:33.647Z,4.33
2023-02-26T15:24:59.483Z,3.42
2023-02-26T15:30:25.021Z,3.02
2023-02-26T15:35:52.242Z,5.15
2023-02-26T15:41:18.562Z,6.90
2023-02-26T15:46:49.515Z,6.75
2023-02-26T15:52:18.237Z,4.64
2023-02-26T15:57:46.395Z,3.38
2023-02-26T16:03:11.038Z,2.58
2023-02-26T16:08:35.718Z,2.07
2023-02-26T16:14:01.320Z,1.63
2023-02-26T16:19:41.935Z,1.37
2023-02-26T16:25:08.792Z,2.69
2023-02-26T16:30:38.126Z,5.66
2023-02-26T16:36:19.102Z,7.02
2023-02-26T16:41:47.447Z,7.84
2023-02-26T16:47:11.517Z,8.05
2023-02-26T16:52:36.088Z,7.64
2023-02-26T16:58:06.262Z,5.24
2023-02-26T17:03:31.652Z,3.42
2023-02-26T17:08:59.208Z,2.31
2023-02-26T17:14:26.021Z,1.51
2023-02-26T17:19:51.112Z,0.96
2023-02-26T17:25:21.187Z,0.60
2023-02-26T17:30:46.712Z,1.45
2023-02-26T17:36:16.450Z,4.24
2023-02-26T17:41:43.899Z,5.80
2023-02-26T17:47:15.427Z,6.57
2023-02-26T17:52:39.520Z,7.07
2023-02-26T17:58:06.829Z,7.29
2023-02-26T18:03:31.401Z,7.48
2023-02-26T18:08:56.080Z,7.79
2023-02-26T18:14:19.860Z,6.99
2023-02-26T18:19:44.003Z,4.65
2023-02-26T18:25:09.829Z,3.22
2023-02-26T18:30:36.813Z,2.30
2023-02-26T18:36:01.534Z,1.77
2023-02-26T18:41:27.466Z,1.38
2023-02-26T18:46:52.590Z,1.07
2023-02-26T18:52:17.037Z,0.89
2023-02-26T18:57:42.703Z,0.78
2023-02-26T19:03:09.599Z,1.79
2023-02-26T19:08:35.093Z,4.80
2023-02-26T19:14:01.711Z,6.42
2023-02-26T19:19:25.953Z,7.37
2023-02-26T19:24:50.255Z,7.86
2023-02-26T19:30:14.254Z,8.15
2023-02-26T19:35:39.612Z,6.60
2023-02-26T19:41:04.722Z,4.47
2023-02-26T19:46:30.360Z,2.98
2023-02-26T19:51:55.372Z,2.08
2023-02-26T19:57:20.552Z,1.53
2023-02-26T20:02:46.362Z,1.20
2023-02-26T20:08:11.519Z,1.00
2023-02-26T20:13:37.578Z,0.87
2023-02-26T20:19:02.361Z,0.76
2023-02-26T20:24:26.813Z,0.68
2023-02-26T20:29:51.996Z,1.63
2023-02-26T20:35:16.476Z,4.48
2023-02-26T20:40:40.961Z,6.01
2023-02-26T20:46:06.269Z,6.99
2023-02-26T20:51:30.813Z,7.67
2023-02-26T20:56:55.178Z,8.10
2023-02-26T21:02:21.089Z,7.38
2023-02-26T21:07:45.242Z,5.02
2023-02-26T21:13:12.282Z,3.32
2023-02-26T21:18:36.898Z,2.28
2023-02-26T21:24:01.891Z,1.54
2023-02-26T21:29:27.069Z,1.00
2023-02-26T21:34:51.048Z,0.65
2023-02-26T21:40:15.972Z,0.44
2023-02-26T21:45:41.960Z,0.29
2023-02-26T21:51:07.061Z,1.32
2023-02-26T21:56:31.690Z,4.12
2023-02-26T22:01:56.657Z,5.41
2023-02-26T22:07:20.982Z,6.43
2023-02-26T22:12:45.203Z,7.23
2023-02-26T22:18:09.527Z,7.68
2023-02-26T22:23:34.473Z,6.95
2023-02-26T22:29:01.021Z,4.48
2023-02-26T22:34:25.475Z,2.76
2023-02-26T22:39:49.962Z,1.52
2023-02-26T22:45:17.431Z,0.72
2023-02-26T22:50:42.801Z,0.23
2023-02-26T22:56:07.506Z,-0.08
2023-02-26T23:01:31.855Z,-0.17
2023-02-26T23:06:56.471Z,-0.29
2023-02-26T23:12:20.614Z,-0.34
2023-02-26T23:17:45.060Z,-0.39
2023-02-26T23:23:09.637Z,0.58
2023-02-26T23:28:35.117Z,3.59
2023-02-26T23:34:00.595Z,5.25
2023-02-26T23:39:26.196Z,6.20
2023-02-26T23:44:50.345Z,6.84
2023-02-26T23:50:14.869Z,7.11
2023-02-26T23:55:39.178Z,6.61
